Main page
METAR-TAF:

METAR-TAF

Airports :

Nîmes–Alès–Camargue–Cévennes Airport

Nîmes, France

latitude: 43-45N, longitude: 004-25E, elevation: 94 m

Current weather observation

The report was made 23 minutes ago, at 06:00 UTC
Wind 11 kt from the North, varying between North/Northwest and North/Northeast
Temperature 13°C
Humidity 54%
Pressure 1024 hPa
Visibility 10 km or more
no clouds below 1500 m and no cumulonimbus

METAR: LFTW 230600Z AUTO 36011KT 330V030 CAVOK 13/04 Q1024 BECMG 01015G30KT

Time: 08:23 (06:23 UTC)

Forecast

The report was made 4 hours and 23 minutes ago, at 02:00 UTC
Forecast valid from 23 at 03 UTC to 24 at 03 UTC
Wind 15 kt from the North with gusts up to 30 kt
Visibility 10 km or more
no clouds below 1500 m and no cumulonimbus
Temporary
from 23 at 20 UTC to 24 at 03 UTC
Wind 25 kt from the North with gusts up to 35 kt

TAF: LFTW 230200Z 2303/2403 01015G30KT CAVOK TEMPO 2320/2403 01025G35KT

Weather observations and forecasts of more than 4000 airports (METAR and TAF reports).

The available stations are represented by yellow and red dots on the map.

Hover mouse over dot to see the name of the station.

Then click to see weather observations and forecasts.

To change the map : click on the green buttons with a black cross to zoom in, on the green button with a dash to zoom out, or on the green arrows for adjacent maps.


METAR-TAF: